Time;durP1;ratioP1;P1;durP2;ratioP2;P2;SDS_P1;SDS_P2;PMS_P1;PMS_P2;Temp;Humidity;BMP_temperature;BMP_pressure;BME280_temperature;BME280_humidity;BME280_pressure;Samples;Min_cycle;Max_cycle;Signal;HPM_P1;HPM_P2
2023/07/24 00:02:13;;;;;;;0.80;0.60;;;;;;;;;;5110098;27;42040;-65
2023/07/24 00:04:41;;;;;;;0.60;0.50;;;;;;;;;;5109631;27;42993;-66
2023/07/24 00:07:09;;;;;;;1.52;0.50;;;;;;;;;;5104329;27;41959;-66
2023/07/24 00:09:37;;;;;;;1.20;0.50;;;;;;;;;;5089515;28;42114;-65
2023/07/24 00:12:05;;;;;;;0.50;0.43;;;;;;;;;;5103175;28;41978;-65
2023/07/24 00:14:35;;;;;;;1.95;0.40;;;;;;;;;;5091410;27;42264;-65
2023/07/24 00:17:03;;;;;;;0.40;0.40;;;;;;;;;;5101291;28;42397;-65
2023/07/24 00:19:31;;;;;;;0.52;0.52;;;;;;;;;;5108919;27;42187;-65
2023/07/24 00:21:59;;;;;;;0.60;0.40;;;;;;;;;;5108897;27;41780;-66
2023/07/24 00:24:27;;;;;;;0.40;0.30;;;;;;;;;;5109069;27;42333;-65
2023/07/24 00:26:55;;;;;;;1.08;0.57;;;;;;;;;;5109177;27;42615;-65
2023/07/24 00:29:24;;;;;;;0.38;0.35;;;;;;;;;;5106517;28;40763;-65
2023/07/24 00:31:53;;;;;;;0.43;0.43;;;;;;;;;;5109331;28;40882;-65
2023/07/24 00:34:21;;;;;;;1.38;0.43;;;;;;;;;;5105301;28;42218;-64
2023/07/24 00:36:49;;;;;;;0.40;0.35;;;;;;;;;;5107171;28;41585;-65
2023/07/24 00:39:17;;;;;;;0.73;0.40;;;;;;;;;;5106472;27;41361;-65
2023/07/24 00:41:45;;;;;;;0.85;0.38;;;;;;;;;;5106528;28;42915;-65
2023/07/24 00:44:13;;;;;;;0.40;0.30;;;;;;;;;;5122993;27;39908;-65
2023/07/24 00:46:41;;;;;;;0.32;0.32;;;;;;;;;;5106587;28;41221;-65
2023/07/24 00:49:10;;;;;;;0.40;0.40;;;;;;;;;;5107996;28;43183;-65
2023/07/24 00:51:38;;;;;;;0.43;0.30;;;;;;;;;;5108443;27;40891;-66
2023/07/24 00:54:06;;;;;;;0.50;0.30;;;;;;;;;;5109645;28;42163;-65
2023/07/24 00:56:34;;;;;;;0.40;0.40;;;;;;;;;;5107832;28;42266;-66
2023/07/24 00:59:02;;;;;;;0.30;0.30;;;;;;;;;;5109118;28;40915;-65
2023/07/24 01:01:30;;;;;;;0.30;0.30;;;;;;;;;;5103568;28;42325;-65
2023/07/24 01:03:58;;;;;;;0.52;0.40;;;;;;;;;;5096428;28;41979;-65
2023/07/24 01:06:27;;;;;;;0.30;0.30;;;;;;;;;;5088376;28;41272;-65
2023/07/24 01:08:56;;;;;;;0.40;0.40;;;;;;;;;;5088700;28;41780;-65
2023/07/24 01:11:25;;;;;;;0.30;0.30;;;;;;;;;;5087710;28;41331;-65
2023/07/24 01:13:57;;;;;;;0.28;0.22;;;;;;;;;;5088434;28;41499;-65
2023/07/24 01:16:27;;;;;;;0.40;0.40;;;;;;;;;;5090876;28;42143;-65
2023/07/24 01:18:55;;;;;;;0.57;0.30;;;;;;;;;;5088838;28;41199;-65
2023/07/24 01:21:25;;;;;;;0.85;0.30;;;;;;;;;;5090322;28;42663;-65
2023/07/24 01:23:56;;;;;;;0.30;0.30;;;;;;;;;;5104469;27;30753;-65
2023/07/24 01:26:26;;;;;;;0.82;0.30;;;;;;;;;;5086645;28;40119;-65
2023/07/24 01:28:54;;;;;;;0.30;0.30;;;;;;;;;;5088079;28;44073;-65
2023/07/24 01:31:23;;;;;;;0.40;0.30;;;;;;;;;;5102923;28;42469;-65
2023/07/24 01:33:51;;;;;;;0.40;0.40;;;;;;;;;;5108764;28;42242;-65
2023/07/24 01:36:19;;;;;;;0.30;0.30;;;;;;;;;;5108395;28;41921;-65
2023/07/24 01:38:47;;;;;;;0.30;0.30;;;;;;;;;;5107334;28;43608;-65
2023/07/24 01:41:15;;;;;;;0.40;0.30;;;;;;;;;;5108372;27;41736;-65
2023/07/24 01:43:44;;;;;;;0.30;0.30;;;;;;;;;;5108625;28;43183;-65
2023/07/24 01:46:12;;;;;;;0.20;0.20;;;;;;;;;;5107588;28;41998;-65
2023/07/24 01:48:40;;;;;;;0.30;0.30;;;;;;;;;;5112608;27;40622;-65
2023/07/24 01:51:08;;;;;;;0.55;0.30;;;;;;;;;;5086277;28;40076;-65
2023/07/24 01:53:36;;;;;;;0.30;0.30;;;;;;;;;;5084850;28;41070;-65
2023/07/24 01:56:04;;;;;;;0.30;0.30;;;;;;;;;;5086237;28;41720;-65
2023/07/24 01:58:32;;;;;;;0.47;0.43;;;;;;;;;;5085691;28;40966;-65
2023/07/24 02:01:01;;;;;;;0.25;0.20;;;;;;;;;;5087244;28;41516;-65
2023/07/24 02:03:29;;;;;;;0.93;0.20;;;;;;;;;;5085335;28;41850;-65
2023/07/24 02:05:57;;;;;;;0.20;0.20;;;;;;;;;;5087435;28;41306;-65
2023/07/24 02:08:25;;;;;;;0.25;0.20;;;;;;;;;;5087386;28;41722;-65
2023/07/24 02:10:53;;;;;;;0.68;0.20;;;;;;;;;;5087927;28;42027;-66
2023/07/24 02:13:21;;;;;;;0.40;0.30;;;;;;;;;;5085217;28;41126;-65
2023/07/24 02:15:50;;;;;;;0.30;0.20;;;;;;;;;;5090075;28;43029;-65
2023/07/24 02:18:22;;;;;;;0.30;0.30;;;;;;;;;;5107591;28;40906;-65
2023/07/24 02:20:52;;;;;;;0.40;0.40;;;;;;;;;;5105782;28;40130;-66
2023/07/24 02:23:21;;;;;;;0.38;0.30;;;;;;;;;;5121610;27;40894;-65
2023/07/24 02:25:51;;;;;;;0.28;0.22;;;;;;;;;;5090058;28;42040;-65
2023/07/24 02:28:22;;;;;;;0.30;0.30;;;;;;;;;;5104399;27;40807;-65
2023/07/24 02:30:55;;;;;;;0.30;0.25;;;;;;;;;;5090617;27;39824;-65
2023/07/24 02:33:27;;;;;;;0.40;0.40;;;;;;;;;;5094803;28;42615;-65
2023/07/24 02:35:56;;;;;;;0.35;0.35;;;;;;;;;;5086454;28;41707;-65
2023/07/24 02:38:24;;;;;;;0.30;0.30;;;;;;;;;;5086932;28;41092;-65
2023/07/24 02:40:52;;;;;;;0.40;0.40;;;;;;;;;;5086715;28;42293;-65
2023/07/24 02:43:20;;;;;;;0.38;0.38;;;;;;;;;;5082502;28;40810;-65
2023/07/24 02:45:48;;;;;;;0.43;0.40;;;;;;;;;;5089792;28;42101;-65
2023/07/24 02:48:16;;;;;;;0.50;0.38;;;;;;;;;;5103170;28;41411;-65
2023/07/24 02:50:45;;;;;;;0.20;0.20;;;;;;;;;;5105204;28;41891;-65
2023/07/24 02:53:13;;;;;;;0.30;0.30;;;;;;;;;;5105560;28;41327;-65
2023/07/24 02:55:42;;;;;;;0.30;0.22;;;;;;;;;;5104098;28;42427;-65
2023/07/24 02:58:12;;;;;;;0.20;0.20;;;;;;;;;;5107575;28;41368;-65
2023/07/24 03:00:40;;;;;;;0.30;0.30;;;;;;;;;;5106638;28;42281;-65
2023/07/24 03:03:08;;;;;;;0.30;0.30;;;;;;;;;;5104803;28;40607;-65
2023/07/24 03:05:36;;;;;;;0.40;0.30;;;;;;;;;;5105893;28;41526;-65
2023/07/24 03:08:06;;;;;;;0.30;0.25;;;;;;;;;;5122984;27;40680;-65
2023/07/24 03:10:34;;;;;;;0.30;0.30;;;;;;;;;;5101614;28;42459;-65
2023/07/24 03:13:02;;;;;;;0.30;0.30;;;;;;;;;;5107868;28;41370;-66
2023/07/24 03:15:30;;;;;;;0.30;0.30;;;;;;;;;;5103658;28;43742;-66
2023/07/24 03:17:58;;;;;;;0.40;0.40;;;;;;;;;;5101563;28;40808;-65
2023/07/24 03:20:26;;;;;;;0.20;0.20;;;;;;;;;;5119006;27;39775;-65
2023/07/24 03:22:54;;;;;;;0.30;0.30;;;;;;;;;;5122545;27;41975;-65
2023/07/24 03:25:23;;;;;;;0.43;0.30;;;;;;;;;;5104586;28;39969;-65
2023/07/24 03:27:51;;;;;;;0.40;0.40;;;;;;;;;;5105202;28;40406;-65
2023/07/24 03:30:21;;;;;;;0.30;0.30;;;;;;;;;;5104238;28;42083;-65
2023/07/24 03:32:49;;;;;;;0.20;0.20;;;;;;;;;;5107117;27;40742;-65
2023/07/24 03:35:17;;;;;;;0.30;0.30;;;;;;;;;;5121449;27;41947;-65
2023/07/24 03:37:45;;;;;;;0.55;0.20;;;;;;;;;;5105714;28;41298;-66
2023/07/24 03:40:13;;;;;;;0.30;0.30;;;;;;;;;;5106960;28;41469;-66
2023/07/24 03:42:42;;;;;;;0.70;0.43;;;;;;;;;;5106394;28;42041;-65
2023/07/24 03:45:10;;;;;;;0.30;0.30;;;;;;;;;;5104362;28;40099;-65
2023/07/24 03:47:38;;;;;;;0.30;0.30;;;;;;;;;;5105620;28;42682;-65
2023/07/24 03:50:10;;;;;;;0.30;0.30;;;;;;;;;;5106720;27;42060;-65
2023/07/24 03:52:38;;;;;;;0.38;0.30;;;;;;;;;;5105286;27;41325;-65
2023/07/24 03:55:07;;;;;;;0.47;0.40;;;;;;;;;;5106462;27;43426;-65
2023/07/24 03:57:35;;;;;;;0.30;0.30;;;;;;;;;;5104087;27;40948;-65
2023/07/24 04:00:06;;;;;;;0.22;0.22;;;;;;;;;;5103815;27;41455;-65
2023/07/24 04:02:40;;;;;;;0.20;0.20;;;;;;;;;;5104078;28;42582;-66
2023/07/24 04:05:08;;;;;;;0.50;0.40;;;;;;;;;;5103914;27;41128;-65
2023/07/24 04:07:37;;;;;;;0.20;0.20;;;;;;;;;;5085218;27;41686;-65
2023/07/24 04:10:05;;;;;;;0.20;0.20;;;;;;;;;;5092001;28;42688;-65
2023/07/24 04:12:33;;;;;;;0.20;0.20;;;;;;;;;;5089453;27;41189;-65
2023/07/24 04:15:01;;;;;;;0.30;0.30;;;;;;;;;;5093011;28;42686;-65
2023/07/24 04:17:32;;;;;;;0.40;0.30;;;;;;;;;;5097405;27;42513;-65
2023/07/24 04:20:03;;;;;;;0.30;0.30;;;;;;;;;;5089226;28;42753;-65
2023/07/24 04:22:31;;;;;;;0.40;0.40;;;;;;;;;;5092667;28;43072;-65
2023/07/24 04:24:59;;;;;;;0.50;0.50;;;;;;;;;;5110066;27;42322;-65
2023/07/24 04:27:27;;;;;;;0.50;0.40;;;;;;;;;;5107702;27;41776;-66
2023/07/24 04:29:55;;;;;;;0.40;0.30;;;;;;;;;;5109696;27;42052;-65
2023/07/24 04:32:23;;;;;;;0.40;0.30;;;;;;;;;;5105295;27;42271;-65
2023/07/24 04:34:52;;;;;;;0.30;0.30;;;;;;;;;;5088223;28;41766;-66
2023/07/24 04:37:20;;;;;;;0.30;0.30;;;;;;;;;;5088577;28;42344;-65
2023/07/24 04:39:48;;;;;;;0.40;0.40;;;;;;;;;;5089175;28;40818;-65
2023/07/24 04:42:16;;;;;;;0.30;0.30;;;;;;;;;;5088155;28;42476;-65
2023/07/24 04:44:44;;;;;;;0.32;0.20;;;;;;;;;;5088770;28;40975;-65
2023/07/24 04:47:12;;;;;;;0.30;0.30;;;;;;;;;;5107338;28;41832;-65
2023/07/24 04:49:40;;;;;;;0.30;0.30;;;;;;;;;;5108437;27;42324;-65
2023/07/24 04:52:09;;;;;;;0.47;0.30;;;;;;;;;;5109620;27;41230;-65
2023/07/24 04:54:37;;;;;;;0.63;0.30;;;;;;;;;;5107812;27;41824;-65
2023/07/24 04:57:05;;;;;;;0.38;0.30;;;;;;;;;;5109423;27;42615;-65
2023/07/24 04:59:33;;;;;;;0.20;0.20;;;;;;;;;;5108638;27;40618;-65
2023/07/24 05:02:01;;;;;;;0.77;0.30;;;;;;;;;;5101210;27;41660;-65
2023/07/24 05:04:29;;;;;;;0.35;0.35;;;;;;;;;;5099090;28;41915;-65
2023/07/24 05:06:57;;;;;;;0.20;0.20;;;;;;;;;;5088776;28;42666;-65
2023/07/24 05:09:26;;;;;;;0.38;0.38;;;;;;;;;;5088015;28;43238;-65
2023/07/24 05:11:54;;;;;;;0.30;0.30;;;;;;;;;;5088660;28;41418;-65
2023/07/24 05:14:22;;;;;;;0.20;0.20;;;;;;;;;;5088701;28;41940;-65
2023/07/24 05:16:50;;;;;;;0.30;0.30;;;;;;;;;;5101733;28;41888;-65
2023/07/24 05:19:18;;;;;;;0.50;0.30;;;;;;;;;;5101158;27;41395;-65
2023/07/24 05:21:46;;;;;;;0.32;0.20;;;;;;;;;;5093230;27;41693;-64
2023/07/24 05:24:14;;;;;;;0.30;0.30;;;;;;;;;;5104929;27;42127;-65
2023/07/24 05:26:43;;;;;;;0.30;0.30;;;;;;;;;;5108231;27;41685;-65
2023/07/24 05:29:11;;;;;;;0.30;0.30;;;;;;;;;;5109165;27;44372;-65
2023/07/24 05:31:39;;;;;;;0.47;0.40;;;;;;;;;;5107193;27;42355;-66
2023/07/24 05:34:07;;;;;;;0.20;0.20;;;;;;;;;;5108995;27;41105;-65
2023/07/24 05:36:35;;;;;;;0.35;0.30;;;;;;;;;;5108260;27;42043;-66
2023/07/24 05:39:03;;;;;;;0.20;0.20;;;;;;;;;;5107946;27;41240;-65
2023/07/24 05:41:31;;;;;;;0.40;0.40;;;;;;;;;;5108330;27;41684;-66
2023/07/24 05:44:00;;;;;;;0.25;0.25;;;;;;;;;;5108191;27;43110;-65
2023/07/24 05:46:28;;;;;;;0.20;0.20;;;;;;;;;;5107675;27;41912;-65
2023/07/24 05:48:57;;;;;;;0.30;0.30;;;;;;;;;;5108660;27;42002;-65
2023/07/24 05:51:25;;;;;;;0.30;0.30;;;;;;;;;;5107387;27;41645;-65
2023/07/24 05:53:53;;;;;;;0.30;0.30;;;;;;;;;;5099809;27;41668;-65
2023/07/24 05:56:21;;;;;;;0.30;0.30;;;;;;;;;;5090281;28;42162;-65
2023/07/24 05:58:50;;;;;;;0.20;0.20;;;;;;;;;;5086907;28;41942;-65
2023/07/24 06:01:19;;;;;;;0.25;0.25;;;;;;;;;;5103003;28;42469;-65
2023/07/24 06:03:47;;;;;;;0.40;0.40;;;;;;;;;;5099761;27;42489;-65
2023/07/24 06:06:15;;;;;;;0.35;0.35;;;;;;;;;;5100344;27;41543;-65
2023/07/24 06:08:43;;;;;;;0.30;0.30;;;;;;;;;;5098266;27;41687;-65
2023/07/24 06:11:11;;;;;;;0.30;0.30;;;;;;;;;;5098763;27;42342;-64
2023/07/24 06:13:39;;;;;;;0.45;0.30;;;;;;;;;;5101965;28;41555;-65
2023/07/24 06:16:08;;;;;;;0.32;0.22;;;;;;;;;;5107909;28;42107;-65
2023/07/24 06:18:37;;;;;;;0.30;0.30;;;;;;;;;;5106742;27;41343;-64
2023/07/24 06:21:05;;;;;;;0.30;0.30;;;;;;;;;;5107255;27;41983;-65
2023/07/24 06:23:33;;;;;;;0.32;0.32;;;;;;;;;;5107156;27;41706;-65
2023/07/24 06:26:01;;;;;;;0.50;0.30;;;;;;;;;;5107991;27;40784;-65
2023/07/24 06:28:29;;;;;;;0.30;0.30;;;;;;;;;;5107673;27;42664;-65
2023/07/24 06:30:57;;;;;;;0.45;0.30;;;;;;;;;;5094511;27;41082;-65
2023/07/24 06:33:25;;;;;;;0.20;0.20;;;;;;;;;;5095106;28;41975;-65
2023/07/24 06:35:54;;;;;;;0.68;0.40;;;;;;;;;;5087277;28;41748;-66
2023/07/24 06:38:22;;;;;;;0.30;0.30;;;;;;;;;;5085106;28;41750;-65
2023/07/24 06:40:50;;;;;;;1.75;0.30;;;;;;;;;;5087748;28;42328;-65
2023/07/24 06:43:18;;;;;;;0.52;0.40;;;;;;;;;;5095913;28;43117;-65
2023/07/24 06:45:46;;;;;;;0.30;0.30;;;;;;;;;;5092070;28;41372;-65
2023/07/24 06:48:14;;;;;;;0.30;0.30;;;;;;;;;;5107243;27;42305;-65
2023/07/24 06:50:42;;;;;;;0.40;0.40;;;;;;;;;;5103357;27;42069;-66
2023/07/24 06:53:11;;;;;;;0.40;0.30;;;;;;;;;;5091005;28;42137;-65
2023/07/24 06:55:39;;;;;;;5.68;0.90;;;;;;;;;;5106210;27;43057;-65
2023/07/24 06:58:07;;;;;;;2.47;0.93;;;;;;;;;;5101302;27;41052;-65
2023/07/24 07:00:35;;;;;;;5.38;1.08;;;;;;;;;;5095408;28;42551;-64
2023/07/24 07:03:03;;;;;;;4.60;1.42;;;;;;;;;;5086242;28;42158;-65
2023/07/24 07:05:32;;;;;;;2.38;1.08;;;;;;;;;;5086369;28;41303;-64
2023/07/24 07:08:00;;;;;;;4.07;1.67;;;;;;;;;;5086994;28;41782;-64
2023/07/24 07:10:29;;;;;;;1.65;1.02;;;;;;;;;;5087936;28;41932;-64
2023/07/24 07:12:57;;;;;;;4.53;1.40;;;;;;;;;;5087289;28;41390;-66
2023/07/24 07:15:25;;;;;;;2.60;1.40;;;;;;;;;;5087148;28;43044;-67
2023/07/24 07:17:53;;;;;;;4.28;2.15;;;;;;;;;;5107327;27;41206;-66
2023/07/24 07:20:21;;;;;;;5.10;3.15;;;;;;;;;;5106785;27;41586;-66
2023/07/24 07:22:49;;;;;;;6.70;2.47;;;;;;;;;;5106437;27;42279;-66
2023/07/24 07:25:17;;;;;;;4.95;1.67;;;;;;;;;;5107091;27;40886;-66
2023/07/24 07:27:47;;;;;;;4.38;2.22;;;;;;;;;;5096411;27;41652;-66
2023/07/24 07:30:14;;;;;;;7.30;4.30;;;;;;;;;;5106043;27;43122;-66
2023/07/24 07:32:42;;;;;;;10.35;4.60;;;;;;;;;;5106141;27;41122;-66
2023/07/24 07:35:10;;;;;;;7.78;5.32;;;;;;;;;;5092394;28;41806;-66
2023/07/24 07:37:38;;;;;;;6.68;3.95;;;;;;;;;;5105544;27;41257;-66
2023/07/24 07:40:07;;;;;;;7.55;3.10;;;;;;;;;;5107049;27;41619;-67
2023/07/24 07:42:35;;;;;;;4.22;2.85;;;;;;;;;;5106373;27;41524;-66
2023/07/24 07:45:08;;;;;;;6.30;3.38;;;;;;;;;;5106649;27;41539;-66
2023/07/24 07:47:36;;;;;;;4.15;3.10;;;;;;;;;;5104832;27;41643;-66
2023/07/24 07:50:04;;;;;;;3.70;2.92;;;;;;;;;;5108538;27;43335;-66
2023/07/24 07:52:32;;;;;;;4.15;2.97;;;;;;;;;;5106857;27;41930;-66
2023/07/24 07:55:00;;;;;;;4.50;3.15;;;;;;;;;;5108772;27;42293;-66
2023/07/24 07:57:28;;;;;;;5.40;3.08;;;;;;;;;;5107663;27;41100;-66
2023/07/24 07:59:56;;;;;;;4.28;2.97;;;;;;;;;;5108213;27;41626;-66
2023/07/24 08:02:25;;;;;;;3.55;2.80;;;;;;;;;;5108907;27;42738;-66
2023/07/24 08:04:53;;;;;;;3.17;2.88;;;;;;;;;;5109409;27;42262;-67
2023/07/24 08:07:21;;;;;;;5.40;2.92;;;;;;;;;;5110026;27;41441;-66
2023/07/24 08:09:49;;;;;;;3.45;2.85;;;;;;;;;;5109376;27;41065;-66
2023/07/24 08:12:17;;;;;;;4.72;2.63;;;;;;;;;;5109309;27;41799;-66
2023/07/24 08:14:45;;;;;;;4.50;2.60;;;;;;;;;;5110428;27;41351;-66
2023/07/24 08:17:13;;;;;;;4.35;2.80;;;;;;;;;;5110631;27;42152;-66
2023/07/24 08:19:42;;;;;;;4.13;3.15;;;;;;;;;;5109027;27;42655;-65
2023/07/24 08:22:10;;;;;;;4.35;3.20;;;;;;;;;;5110495;27;42385;-66
2023/07/24 08:24:38;;;;;;;3.90;3.30;;;;;;;;;;5108968;27;42229;-66
2023/07/24 08:27:07;;;;;;;3.72;3.08;;;;;;;;;;5109186;27;41473;-66
2023/07/24 08:29:35;;;;;;;5.22;3.10;;;;;;;;;;5109441;27;42553;-66
2023/07/24 08:32:04;;;;;;;3.90;3.38;;;;;;;;;;5109821;27;41249;-66
2023/07/24 08:34:32;;;;;;;3.42;3.10;;;;;;;;;;5108618;27;41695;-66
2023/07/24 08:37:01;;;;;;;5.00;3.47;;;;;;;;;;5109546;27;43070;-66
2023/07/24 08:39:29;;;;;;;5.00;3.90;;;;;;;;;;5109373;27;42239;-66
2023/07/24 08:41:57;;;;;;;6.18;4.13;;;;;;;;;;5109276;27;42698;-66
2023/07/24 08:44:25;;;;;;;4.07;3.67;;;;;;;;;;5109575;27;40828;-66
2023/07/24 08:46:53;;;;;;;4.75;3.60;;;;;;;;;;5108859;27;42337;-66
2023/07/24 08:49:21;;;;;;;5.18;4.10;;;;;;;;;;5109556;27;42827;-66
2023/07/24 08:51:49;;;;;;;5.03;3.97;;;;;;;;;;5109658;27;42340;-66
2023/07/24 08:54:18;;;;;;;4.30;3.88;;;;;;;;;;5108528;27;42634;-66
2023/07/24 08:56:50;;;;;;;5.72;3.65;;;;;;;;;;5108890;27;42252;-66
2023/07/24 08:59:18;;;;;;;4.72;4.30;;;;;;;;;;5108922;27;40845;-66
2023/07/24 09:01:46;;;;;;;4.55;3.80;;;;;;;;;;5108723;27;41440;-66
2023/07/24 09:04:14;;;;;;;4.57;3.95;;;;;;;;;;5109378;27;42007;-66
2023/07/24 09:06:42;;;;;;;4.35;3.85;;;;;;;;;;5108889;27;41321;-66
2023/07/24 09:09:13;;;;;;;5.63;3.63;;;;;;;;;;5108765;27;41797;-66
2023/07/24 09:11:49;;;;;;;4.63;3.92;;;;;;;;;;5108695;27;42391;-66
2023/07/24 09:14:23;;;;;;;4.65;3.45;;;;;;;;;;5109355;27;41656;-66
2023/07/24 09:17:02;;;;;;;5.22;4.03;;;;;;;;;;5107963;27;41998;-66
2023/07/24 09:19:30;;;;;;;6.13;4.13;;;;;;;;;;5108393;27;41165;-66
2023/07/24 09:22:08;;;;;;;4.93;4.03;;;;;;;;;;5108527;27;41232;-66
2023/07/24 09:24:36;;;;;;;4.82;4.38;;;;;;;;;;5108711;27;42862;-66
2023/07/24 09:27:07;;;;;;;4.30;3.90;;;;;;;;;;5108997;27;41985;-66
2023/07/24 09:29:35;;;;;;;4.85;4.28;;;;;;;;;;5107368;27;42594;-66
2023/07/24 09:32:03;;;;;;;4.57;4.13;;;;;;;;;;5108464;27;41158;-66
2023/07/24 09:34:32;;;;;;;4.72;4.25;;;;;;;;;;5108516;27;42237;-66
2023/07/24 09:37:00;;;;;;;4.18;3.78;;;;;;;;;;5097216;27;42702;-66
2023/07/24 09:39:28;;;;;;;6.25;4.55;;;;;;;;;;5100042;28;41321;-65
2023/07/24 09:42:03;;;;;;;5.28;4.78;;;;;;;;;;5103193;27;41349;-66
2023/07/24 09:44:32;;;;;;;8.18;6.00;;;;;;;;;;5102159;27;42546;-66
2023/07/24 09:47:00;;;;;;;5.70;4.65;;;;;;;;;;5104185;27;41227;-66
2023/07/24 09:49:48;;;;;;;4.82;4.30;;;;;;;;;;5098071;28;42020;-66
2023/07/24 09:52:16;;;;;;;6.63;5.70;;;;;;;;;;5099268;27;41273;-67
2023/07/24 09:54:46;;;;;;;9.63;6.82;;;;;;;;;;5100476;27;41619;-66
2023/07/24 09:57:14;;;;;;;7.00;6.00;;;;;;;;;;5095376;27;40350;-66
2023/07/24 09:59:50;;;;;;;7.63;6.63;;;;;;;;;;5106146;27;41440;-65
2023/07/24 10:02:18;;;;;;;9.48;7.32;;;;;;;;;;5108232;27;41785;-66
2023/07/24 10:04:47;;;;;;;8.52;6.80;;;;;;;;;;5105655;27;43187;-66
2023/07/24 10:07:15;;;;;;;8.20;5.93;;;;;;;;;;5099374;27;42026;-66
2023/07/24 10:09:43;;;;;;;7.85;7.07;;;;;;;;;;5091471;28;41814;-66
2023/07/24 10:12:11;;;;;;;8.27;6.50;;;;;;;;;;5094694;27;40931;-67
2023/07/24 10:14:39;;;;;;;7.38;6.55;;;;;;;;;;5096514;27;40249;-66
2023/07/24 10:17:09;;;;;;;8.23;7.40;;;;;;;;;;5097128;28;43091;-66
2023/07/24 10:19:38;;;;;;;6.68;5.97;;;;;;;;;;5100040;27;41967;-66
2023/07/24 10:22:06;;;;;;;9.90;7.07;;;;;;;;;;5100817;27;41820;-66
2023/07/24 10:24:34;;;;;;;8.00;7.20;;;;;;;;;;5106431;27;41672;-66
2023/07/24 10:27:09;;;;;;;7.63;6.10;;;;;;;;;;5107587;27;41409;-66
2023/07/24 10:29:37;;;;;;;6.93;6.13;;;;;;;;;;5102727;27;41720;-66
2023/07/24 10:32:06;;;;;;;9.00;6.45;;;;;;;;;;5097167;27;41329;-66
2023/07/24 10:34:40;;;;;;;6.85;6.00;;;;;;;;;;5098603;27;40358;-66
2023/07/24 10:37:08;;;;;;;8.73;7.20;;;;;;;;;;5097708;28;42709;-66
2023/07/24 10:39:39;;;;;;;6.78;6.10;;;;;;;;;;5095771;27;42215;-66
2023/07/24 10:42:08;;;;;;;10.38;6.72;;;;;;;;;;5098773;28;42073;-66
2023/07/24 10:44:36;;;;;;;6.72;6.13;;;;;;;;;;5097610;27;43154;-66
2023/07/24 10:47:04;;;;;;;7.70;6.93;;;;;;;;;;5101227;28;41599;-66
2023/07/24 10:49:32;;;;;;;8.00;6.70;;;;;;;;;;5100328;27;43343;-66
2023/07/24 10:52:02;;;;;;;9.23;6.60;;;;;;;;;;5105809;27;42846;-66
2023/07/24 10:54:30;;;;;;;14.63;7.07;;;;;;;;;;5092346;27;41684;-66
2023/07/24 10:56:58;;;;;;;9.25;7.70;;;;;;;;;;5088915;28;42538;-65
2023/07/24 10:59:36;;;;;;;8.75;6.25;;;;;;;;;;5093489;27;41149;-65
2023/07/24 11:02:05;;;;;;;7.20;6.18;;;;;;;;;;5085494;28;41686;-65
2023/07/24 11:04:33;;;;;;;7.50;6.32;;;;;;;;;;5090643;27;42084;-65
2023/07/24 11:07:02;;;;;;;7.03;6.32;;;;;;;;;;5106605;27;41696;-65
2023/07/24 11:09:37;;;;;;;7.00;6.25;;;;;;;;;;5106055;27;42703;-66
2023/07/24 11:12:12;;;;;;;6.45;5.80;;;;;;;;;;5106907;27;41661;-66
2023/07/24 11:14:49;;;;;;;8.68;6.55;;;;;;;;;;5106607;27;41906;-65
2023/07/24 11:17:17;;;;;;;8.32;5.82;;;;;;;;;;5098357;27;41708;-65
2023/07/24 11:19:46;;;;;;;9.52;5.72;;;;;;;;;;5088380;28;40886;-65
2023/07/24 11:22:15;;;;;;;9.48;7.18;;;;;;;;;;5094999;27;41808;-66
2023/07/24 11:24:44;;;;;;;10.60;6.72;;;;;;;;;;5102628;27;42274;-65
2023/07/24 11:27:13;;;;;;;6.18;5.50;;;;;;;;;;5102438;28;41827;-65
2023/07/24 11:29:41;;;;;;;7.93;5.97;;;;;;;;;;5104533;27;41915;-64
2023/07/24 11:32:09;;;;;;;6.68;6.00;;;;;;;;;;5102797;27;43150;-65
2023/07/24 11:34:37;;;;;;;7.28;5.97;;;;;;;;;;5107871;27;41280;-65
2023/07/24 11:37:06;;;;;;;6.03;5.28;;;;;;;;;;5102328;27;41724;-65
2023/07/24 11:39:35;;;;;;;6.35;5.53;;;;;;;;;;5098899;28;42081;-65
2023/07/24 11:42:03;;;;;;;11.55;7.40;;;;;;;;;;5101253;27;41775;-66
2023/07/24 11:44:31;;;;;;;7.18;6.45;;;;;;;;;;5100040;27;42178;-66
2023/07/24 11:47:03;;;;;;;10.40;5.75;;;;;;;;;;5099432;28;20220;-66
2023/07/24 11:49:32;;;;;;;7.95;6.35;;;;;;;;;;5097893;28;41979;-65
2023/07/24 11:52:00;;;;;;;6.70;5.55;;;;;;;;;;5100019;28;42142;-65
2023/07/24 11:54:28;;;;;;;6.63;5.93;;;;;;;;;;5099901;27;41151;-65
2023/07/24 11:56:58;;;;;;;10.10;5.75;;;;;;;;;;5097487;27;42374;-65
2023/07/24 11:59:26;;;;;;;17.00;6.13;;;;;;;;;;5106153;28;34519;-64
2023/07/24 12:01:54;;;;;;;7.72;6.25;;;;;;;;;;5106052;28;42536;-64
2023/07/24 12:04:22;;;;;;;6.22;5.32;;;;;;;;;;5099046;28;41421;-65
2023/07/24 12:06:50;;;;;;;6.20;5.60;;;;;;;;;;5098250;28;41753;-64
2023/07/24 12:09:20;;;;;;;7.25;6.55;;;;;;;;;;5099076;27;41176;-66
2023/07/24 12:11:48;;;;;;;7.28;6.30;;;;;;;;;;5100388;27;41104;-65
2023/07/24 12:14:18;;;;;;;9.05;6.72;;;;;;;;;;5104342;27;41302;-65
2023/07/24 12:16:46;;;;;;;6.20;5.60;;;;;;;;;;5103016;27;41192;-65
2023/07/24 12:19:14;;;;;;;7.38;5.72;;;;;;;;;;5106482;28;42622;-65
2023/07/24 12:21:42;;;;;;;8.77;6.30;;;;;;;;;;5102181;27;41722;-65
2023/07/24 12:24:10;;;;;;;6.72;5.10;;;;;;;;;;5101969;27;41983;-65
2023/07/24 12:26:38;;;;;;;12.32;6.35;;;;;;;;;;5105646;27;41757;-66
2023/07/24 12:29:06;;;;;;;6.03;5.13;;;;;;;;;;5093148;27;40745;-65
2023/07/24 12:31:35;;;;;;;11.95;5.88;;;;;;;;;;5091610;28;42425;-66
2023/07/24 12:34:04;;;;;;;8.40;6.10;;;;;;;;;;5099943;27;40641;-65
2023/07/24 12:36:32;;;;;;;6.30;5.70;;;;;;;;;;5093392;27;41594;-65
2023/07/24 12:39:00;;;;;;;7.05;5.63;;;;;;;;;;5091919;28;41900;-65
2023/07/24 12:41:28;;;;;;;7.22;6.18;;;;;;;;;;5109418;27;42166;-65
2023/07/24 12:43:56;;;;;;;10.30;6.97;;;;;;;;;;5109730;27;42620;-65
2023/07/24 12:46:24;;;;;;;8.15;6.20;;;;;;;;;;5108692;27;41706;-65
2023/07/24 12:48:54;;;;;;;9.50;6.07;;;;;;;;;;5109605;27;42198;-66
2023/07/24 12:51:22;;;;;;;11.40;6.30;;;;;;;;;;5109381;27;41873;-65
2023/07/24 12:53:50;;;;;;;7.82;6.07;;;;;;;;;;5107936;27;42808;-65
2023/07/24 12:56:35;;;;;;;7.20;5.95;;;;;;;;;;5109105;27;42504;-65
2023/07/24 12:59:03;;;;;;;7.28;5.57;;;;;;;;;;5109122;27;42075;-65
2023/07/24 13:01:31;;;;;;;8.30;6.32;;;;;;;;;;5108211;27;41321;-65
2023/07/24 13:04:01;;;;;;;8.95;6.22;;;;;;;;;;5109697;27;42797;-65
2023/07/24 13:06:29;;;;;;;9.48;5.72;;;;;;;;;;5108530;27;41862;-66
2023/07/24 13:08:58;;;;;;;6.57;5.00;;;;;;;;;;5108556;27;42261;-66
2023/07/24 13:11:27;;;;;;;5.63;5.00;;;;;;;;;;5108810;27;42792;-65
2023/07/24 13:13:56;;;;;;;9.15;5.30;;;;;;;;;;5109569;27;40836;-65
2023/07/24 13:16:24;;;;;;;7.97;5.32;;;;;;;;;;5108485;27;41519;-65
2023/07/24 13:18:52;;;;;;;6.88;5.35;;;;;;;;;;5109076;27;43750;-65
2023/07/24 13:21:21;;;;;;;6.43;5.15;;;;;;;;;;5108115;27;41222;-66
2023/07/24 13:23:50;;;;;;;8.57;5.40;;;;;;;;;;5109000;27;40572;-66
2023/07/24 13:26:17;;;;;;;7.07;5.53;;;;;;;;;;5102299;27;43041;-62
2023/07/24 13:28:46;;;;;;;7.13;4.75;;;;;;;;;;5093376;27;42327;-64
2023/07/24 13:31:14;;;;;;;5.85;4.63;;;;;;;;;;5087773;28;42069;-62
2023/07/24 13:33:42;;;;;;;5.22;4.70;;;;;;;;;;5088196;28;41375;-62
2023/07/24 13:36:10;;;;;;;6.10;4.47;;;;;;;;;;5087814;28;42252;-63
2023/07/24 13:38:39;;;;;;;6.88;5.32;;;;;;;;;;5088623;28;42653;-62
2023/07/24 13:41:08;;;;;;;5.82;4.97;;;;;;;;;;5108689;27;42397;-61
2023/07/24 13:43:36;;;;;;;7.47;5.32;;;;;;;;;;5107251;27;41624;-61
2023/07/24 13:46:04;;;;;;;8.65;4.82;;;;;;;;;;5108041;27;43059;-61
2023/07/24 13:48:32;;;;;;;6.25;5.22;;;;;;;;;;5108363;27;41437;-61
2023/07/24 13:51:00;;;;;;;7.65;5.20;;;;;;;;;;5108326;27;42798;-61
2023/07/24 13:53:28;;;;;;;6.90;5.43;;;;;;;;;;5108403;27;42038;-60
2023/07/24 13:55:58;;;;;;;8.02;4.47;;;;;;;;;;5108371;27;42624;-60
2023/07/24 13:58:26;;;;;;;6.78;5.35;;;;;;;;;;5106760;27;41768;-65
2023/07/24 14:00:54;;;;;;;10.15;5.15;;;;;;;;;;5109016;27;41103;-64
2023/07/24 14:03:24;;;;;;;9.23;5.10;;;;;;;;;;5107148;27;43615;-64
2023/07/24 14:05:57;;;;;;;7.88;5.20;;;;;;;;;;5107653;27;42134;-64
2023/07/24 14:08:25;;;;;;;6.68;4.53;;;;;;;;;;5108711;27;41098;-64
2023/07/24 14:10:53;;;;;;;5.85;4.78;;;;;;;;;;5107294;27;43237;-63
2023/07/24 14:13:22;;;;;;;7.28;5.07;;;;;;;;;;5107442;27;41119;-63
2023/07/24 14:15:50;;;;;;;7.28;4.78;;;;;;;;;;5107997;27;42644;-64
2023/07/24 14:18:19;;;;;;;6.07;4.68;;;;;;;;;;5106885;27;42715;-64
2023/07/24 14:20:47;;;;;;;5.43;4.88;;;;;;;;;;5107841;27;41769;-64
2023/07/24 14:23:15;;;;;;;7.32;4.70;;;;;;;;;;5107705;27;41667;-64
2023/07/24 14:25:43;;;;;;;4.28;3.88;;;;;;;;;;5106646;27;42247;-64
2023/07/24 14:28:11;;;;;;;5.78;4.60;;;;;;;;;;5108233;27;42097;-63
2023/07/24 14:30:40;;;;;;;6.28;5.00;;;;;;;;;;5107638;27;42682;-64
2023/07/24 14:33:08;;;;;;;5.35;4.82;;;;;;;;;;5105204;27;41915;-64
2023/07/24 14:35:36;;;;;;;4.88;4.35;;;;;;;;;;5093243;27;41905;-64
2023/07/24 14:38:04;;;;;;;5.68;4.70;;;;;;;;;;5092877;28;43048;-64
2023/07/24 14:40:32;;;;;;;4.97;4.55;;;;;;;;;;5092625;28;43479;-64
2023/07/24 14:43:00;;;;;;;7.13;4.82;;;;;;;;;;5093494;28;41525;-64
2023/07/24 14:45:32;;;;;;;7.30;4.75;;;;;;;;;;5096565;28;43168;-64
2023/07/24 14:48:01;;;;;;;5.82;4.50;;;;;;;;;;5094738;27;41194;-64
2023/07/24 14:50:29;;;;;;;5.50;4.03;;;;;;;;;;5106449;27;42734;-64
2023/07/24 14:52:57;;;;;;;4.65;4.25;;;;;;;;;;5107742;27;42177;-64